createdAt,value
2018-01-29T00:00:32.852Z,1021.03
2018-01-29T00:01:08.103Z,1021.02
2018-01-29T00:01:43.808Z,1020.97
2018-01-29T00:02:19.205Z,1021.02
2018-01-29T00:02:54.533Z,1021.03
2018-01-29T00:03:29.931Z,1020.94
2018-01-29T00:04:05.561Z,1020.99
2018-01-29T00:04:40.965Z,1020.98
2018-01-29T00:05:16.510Z,1020.97
2018-01-29T00:05:51.809Z,1021.04
2018-01-29T00:06:27.510Z,1020.94
2018-01-29T00:07:03.006Z,1021.02
2018-01-29T00:07:38.209Z,1021.03
2018-01-29T00:08:13.642Z,1020.90
2018-01-29T00:08:48.936Z,1020.91
2018-01-29T00:09:24.366Z,1020.88
2018-01-29T00:09:59.660Z,1020.86
2018-01-29T00:10:34.966Z,1020.84
2018-01-29T00:11:10.456Z,1020.81
2018-01-29T00:11:45.854Z,1020.88
2018-01-29T00:12:21.064Z,1020.85
2018-01-29T00:12:56.362Z,1020.85
2018-01-29T00:13:31.700Z,1021.00
2018-01-29T00:14:07.100Z,1020.93
2018-01-29T00:14:42.645Z,1020.89
2018-01-29T00:15:18.341Z,1020.83
2018-01-29T00:15:53.642Z,1020.89
2018-01-29T00:16:29.053Z,1020.90
2018-01-29T00:17:04.250Z,1020.91
2018-01-29T00:17:39.467Z,1020.83
2018-01-29T00:18:14.949Z,1020.87
2018-01-29T00:18:50.256Z,1020.78
2018-01-29T00:19:25.581Z,1020.85
2018-01-29T00:20:00.800Z,1020.92
2018-01-29T00:20:36.301Z,1020.82
2018-01-29T00:21:11.807Z,1020.86
2018-01-29T00:21:47.409Z,1020.88
2018-01-29T00:22:22.709Z,1020.77
2018-01-29T00:22:58.338Z,1020.88
2018-01-29T00:23:33.530Z,1020.78
2018-01-29T00:24:08.541Z,1020.83
2018-01-29T00:24:44.039Z,1020.78
2018-01-29T00:25:19.368Z,1020.80
2018-01-29T00:25:54.480Z,1020.74
2018-01-29T00:26:29.777Z,1020.74
2018-01-29T00:27:05.184Z,1020.70
2018-01-29T00:27:40.484Z,1020.80
2018-01-29T00:28:15.915Z,1020.76
2018-01-29T00:28:51.122Z,1020.68
2018-01-29T00:29:26.824Z,1020.63
2018-01-29T00:30:02.229Z,1020.69
2018-01-29T00:30:39.655Z,1020.69
2018-01-29T00:31:14.859Z,1020.67
2018-01-29T00:31:50.054Z,1020.66
2018-01-29T00:32:25.255Z,1020.62
2018-01-29T00:33:00.460Z,1020.58
2018-01-29T00:33:35.583Z,1020.65
2018-01-29T00:34:10.880Z,1020.63
2018-01-29T00:34:45.986Z,1020.68
2018-01-29T00:35:21.282Z,1020.70
2018-01-29T00:35:56.611Z,1020.66
2018-01-29T00:36:32.111Z,1020.63
2018-01-29T00:37:07.511Z,1020.62
2018-01-29T00:37:43.008Z,1020.63
2018-01-29T00:38:18.310Z,1020.61
2018-01-29T00:38:53.835Z,1020.60
2018-01-29T00:39:29.339Z,1020.62
2018-01-29T00:40:04.341Z,1020.61
2018-01-29T00:40:39.848Z,1020.59
2018-01-29T00:41:15.381Z,1020.63
2018-01-29T00:41:50.883Z,1020.59
2018-01-29T00:42:26.187Z,1020.76
2018-01-29T00:43:01.680Z,1020.61
2018-01-29T00:43:37.280Z,1020.63
2018-01-29T00:44:12.582Z,1020.67
2018-01-29T00:44:47.781Z,1020.68
2018-01-29T00:45:23.086Z,1020.55
2018-01-29T00:45:58.510Z,1020.62
2018-01-29T00:46:33.852Z,1020.61
2018-01-29T00:47:08.953Z,1020.59
2018-01-29T00:47:43.952Z,1020.59
2018-01-29T00:48:19.200Z,1020.60
2018-01-29T00:48:54.407Z,1020.59
2018-01-29T00:49:29.814Z,1020.51
2018-01-29T00:50:05.112Z,1020.62
2018-01-29T00:50:40.410Z,1020.56
2018-01-29T00:51:15.606Z,1020.56
2018-01-29T00:51:50.944Z,1020.61
2018-01-29T00:52:26.140Z,1020.40
2018-01-29T00:53:01.439Z,1020.51
2018-01-29T00:53:36.868Z,1020.59
2018-01-29T00:54:12.464Z,1020.42
2018-01-29T00:54:47.974Z,1020.50
2018-01-29T00:55:23.375Z,1020.54
2018-01-29T00:55:58.873Z,1020.45
2018-01-29T00:56:34.277Z,1020.39
2018-01-29T00:57:09.507Z,1020.51
2018-01-29T00:57:45.018Z,1020.53
2018-01-29T00:58:20.414Z,1020.46
2018-01-29T00:58:55.656Z,1020.43
2018-01-29T00:59:31.046Z,1020.46
2018-01-29T01:00:06.544Z,1020.47
2018-01-29T01:00:41.942Z,1020.52
2018-01-29T01:01:17.150Z,1020.50
2018-01-29T01:01:52.653Z,1020.42
2018-01-29T01:02:30.478Z,1020.33
2018-01-29T01:03:05.785Z,1020.28
2018-01-29T01:03:40.787Z,1020.35
2018-01-29T01:04:16.188Z,1020.32
2018-01-29T01:04:51.709Z,1020.28
2018-01-29T01:05:27.015Z,1020.34
2018-01-29T01:06:02.213Z,1020.30
2018-01-29T01:06:37.509Z,1020.26
2018-01-29T01:07:13.214Z,1020.34
2018-01-29T01:07:48.746Z,1020.33
2018-01-29T01:08:23.945Z,1020.37
2018-01-29T01:08:59.362Z,1020.39
2018-01-29T01:09:34.755Z,1020.34
2018-01-29T01:10:09.964Z,1020.37
2018-01-29T01:10:45.354Z,1020.36
2018-01-29T01:11:20.855Z,1020.37
2018-01-29T01:11:56.252Z,1020.27
2018-01-29T01:12:31.566Z,1020.31
2018-01-29T01:13:06.797Z,1020.22
2018-01-29T01:13:42.420Z,1020.30
2018-01-29T01:14:17.918Z,1020.28
2018-01-29T01:14:53.517Z,1020.33
2018-01-29T01:15:29.121Z,1020.31
2018-01-29T01:16:04.315Z,1020.28
2018-01-29T01:16:39.513Z,1020.23
2018-01-29T01:17:15.012Z,1020.28
2018-01-29T01:17:50.313Z,1020.30
2018-01-29T01:18:25.850Z,1020.30
2018-01-29T01:19:01.075Z,1020.26
2018-01-29T01:19:36.278Z,1020.25
2018-01-29T01:20:11.475Z,1020.25
2018-01-29T01:20:46.878Z,1020.23
2018-01-29T01:21:22.176Z,1020.33
2018-01-29T01:21:57.372Z,1020.38
2018-01-29T01:22:32.776Z,1020.36
2018-01-29T01:23:07.983Z,1020.19
2018-01-29T01:23:43.605Z,1020.31
2018-01-29T01:24:18.633Z,1020.27
2018-01-29T01:24:54.132Z,1020.33
2018-01-29T01:25:30.037Z,1020.36
2018-01-29T01:26:05.530Z,1020.37
2018-01-29T01:26:40.736Z,1020.36
2018-01-29T01:27:15.926Z,1020.30
2018-01-29T01:27:51.327Z,1020.32
2018-01-29T01:28:26.623Z,1020.26
2018-01-29T01:29:01.953Z,1020.36
2018-01-29T01:29:37.257Z,1020.28
2018-01-29T01:30:12.752Z,1020.23
2018-01-29T01:30:48.867Z,1020.19
2018-01-29T01:31:24.259Z,1020.18
2018-01-29T01:31:59.466Z,1020.18
2018-01-29T01:32:34.967Z,1020.03
2018-01-29T01:33:10.275Z,1020.24
2018-01-29T01:33:46.289Z,1020.18
2018-01-29T01:34:21.792Z,1020.24
2018-01-29T01:34:57.102Z,1020.15
2018-01-29T01:35:32.807Z,1020.20
2018-01-29T01:36:08.400Z,1020.20
2018-01-29T01:36:43.994Z,1020.22
2018-01-29T01:37:19.099Z,1020.16
2018-01-29T01:37:54.401Z,1020.22
2018-01-29T01:38:30.005Z,1020.22
2018-01-29T01:39:05.458Z,1020.27
2018-01-29T01:39:40.752Z,1020.21
2018-01-29T01:40:16.253Z,1020.25
2018-01-29T01:40:51.652Z,1020.15
2018-01-29T01:41:26.971Z,1020.17
2018-01-29T01:42:02.466Z,1020.20
2018-01-29T01:42:37.870Z,1020.21
2018-01-29T01:43:13.471Z,1020.11
2018-01-29T01:43:48.677Z,1020.24
2018-01-29T01:44:24.332Z,1020.16
2018-01-29T01:44:59.830Z,1020.17
2018-01-29T01:45:35.133Z,1020.17
2018-01-29T01:46:11.331Z,1020.09
2018-01-29T01:46:46.537Z,1020.24
2018-01-29T01:47:21.744Z,1020.02
2018-01-29T01:47:57.041Z,1020.11
2018-01-29T01:48:32.636Z,1020.14
2018-01-29T01:49:08.263Z,1020.06
2018-01-29T01:49:43.467Z,1020.22
2018-01-29T01:50:18.769Z,1020.08
2018-01-29T01:50:53.871Z,1019.98
2018-01-29T01:51:28.972Z,1020.15
2018-01-29T01:52:04.778Z,1020.09
2018-01-29T01:52:39.986Z,1020.08
2018-01-29T01:53:15.475Z,1020.03
2018-01-29T01:53:51.203Z,1020.05
2018-01-29T01:54:26.631Z,1020.03
2018-01-29T01:55:02.037Z,1020.05
2018-01-29T01:55:37.533Z,1019.94
2018-01-29T01:56:12.626Z,1020.01
2018-01-29T01:56:48.050Z,1020.04
2018-01-29T01:57:23.254Z,1020.04
2018-01-29T01:57:58.555Z,1020.06
2018-01-29T01:58:34.160Z,1020.10
2018-01-29T01:59:09.508Z,1020.03
2018-01-29T01:59:44.714Z,1020.03
2018-01-29T02:00:19.819Z,1020.12
2018-01-29T02:00:55.040Z,1020.05
2018-01-29T02:01:30.532Z,1020.06
2018-01-29T02:02:05.845Z,1020.11
2018-01-29T02:02:41.047Z,1019.99
2018-01-29T02:03:16.243Z,1020.01
2018-01-29T02:03:51.343Z,1020.01
2018-01-29T02:04:26.799Z,1020.01
2018-01-29T02:05:02.109Z,1019.98
2018-01-29T02:05:37.330Z,1019.95
2018-01-29T02:06:12.720Z,1019.91
2018-01-29T02:06:48.023Z,1019.97
2018-01-29T02:07:23.522Z,1019.92
2018-01-29T02:07:58.826Z,1019.97
2018-01-29T02:08:34.320Z,1019.99
2018-01-29T02:09:09.846Z,1019.94
2018-01-29T02:09:45.290Z,1019.99
2018-01-29T02:10:20.696Z,1019.91
2018-01-29T02:10:55.897Z,1019.94
2018-01-29T02:11:31.491Z,1019.96
2018-01-29T02:12:06.891Z,1019.96
2018-01-29T02:12:42.582Z,1019.94
2018-01-29T02:13:17.978Z,1019.95
2018-01-29T02:13:53.373Z,1020.03
2018-01-29T02:14:28.902Z,1019.98
2018-01-29T02:15:04.246Z,1019.87
2018-01-29T02:15:40.055Z,1019.89
2018-01-29T02:16:15.451Z,1019.89
2018-01-29T02:16:51.046Z,1019.93
2018-01-29T02:17:26.641Z,1019.93
2018-01-29T02:18:02.029Z,1019.89
2018-01-29T02:18:37.442Z,1019.91
2018-01-29T02:19:12.736Z,1019.83
2018-01-29T02:19:48.052Z,1019.96
2018-01-29T02:20:23.493Z,1019.79
2018-01-29T02:20:58.846Z,1019.92
2018-01-29T02:21:34.243Z,1019.90
2018-01-29T02:22:09.547Z,1019.88
2018-01-29T02:22:44.833Z,1019.84
2018-01-29T02:23:20.231Z,1019.88
2018-01-29T02:23:55.630Z,1019.84
2018-01-29T02:24:30.949Z,1019.79
2018-01-29T02:25:06.248Z,1019.82
2018-01-29T02:25:41.348Z,1019.71
2018-01-29T02:26:16.840Z,1019.85
2018-01-29T02:26:52.239Z,1019.74
2018-01-29T02:27:27.339Z,1019.70
2018-01-29T02:28:02.770Z,1019.78
2018-01-29T02:28:38.145Z,1019.69
2018-01-29T02:29:13.537Z,1019.79
2018-01-29T02:29:48.893Z,1019.76
2018-01-29T02:30:24.407Z,1019.78
2018-01-29T02:30:59.805Z,1019.73
2018-01-29T02:31:35.299Z,1019.71
2018-01-29T02:32:10.694Z,1019.68
2018-01-29T02:32:45.986Z,1019.72
2018-01-29T02:33:21.079Z,1019.80
2018-01-29T02:33:56.281Z,1019.71
2018-01-29T02:34:31.605Z,1019.72
2018-01-29T02:35:06.931Z,1019.63
2018-01-29T02:35:42.026Z,1019.72
2018-01-29T02:36:17.418Z,1019.66
2018-01-29T02:36:53.023Z,1019.63
2018-01-29T02:37:28.211Z,1019.60
2018-01-29T02:38:03.614Z,1019.70
2018-01-29T02:38:38.810Z,1019.69
2018-01-29T02:39:14.101Z,1019.73
2018-01-29T02:39:49.335Z,1019.71
2018-01-29T02:40:24.871Z,1019.56
2018-01-29T02:41:00.271Z,1019.58
2018-01-29T02:41:35.364Z,1019.57
2018-01-29T02:42:10.766Z,1019.57
2018-01-29T02:42:45.974Z,1019.49
2018-01-29T02:43:21.465Z,1019.51
2018-01-29T02:43:56.677Z,1019.50
2018-01-29T02:44:31.971Z,1019.54
2018-01-29T02:45:07.691Z,1019.54
2018-01-29T02:45:43.014Z,1019.50
2018-01-29T02:46:18.430Z,1019.56
2018-01-29T02:46:53.624Z,1019.45
2018-01-29T02:47:29.127Z,1019.53
2018-01-29T02:48:04.424Z,1019.52
2018-01-29T02:48:39.819Z,1019.51
2018-01-29T02:49:15.117Z,1019.47
2018-01-29T02:49:50.238Z,1019.55
2018-01-29T02:50:25.538Z,1019.60
2018-01-29T02:51:00.846Z,1019.52
2018-01-29T02:51:36.247Z,1019.34
2018-01-29T02:52:11.637Z,1019.42
2018-01-29T02:52:46.841Z,1019.41
2018-01-29T02:53:22.240Z,1019.43
2018-01-29T02:53:57.447Z,1019.44
2018-01-29T02:54:32.747Z,1019.45
2018-01-29T02:55:08.057Z,1019.34
2018-01-29T02:55:43.258Z,1019.45
2018-01-29T02:56:18.653Z,1019.62
2018-01-29T02:56:53.846Z,1019.42
2018-01-29T02:57:29.545Z,1019.37
2018-01-29T02:58:04.729Z,1019.43
2018-01-29T02:58:40.134Z,1019.38
2018-01-29T02:59:15.621Z,1019.42
2018-01-29T02:59:50.640Z,1019.45
2018-01-29T03:00:25.769Z,1019.44
2018-01-29T03:01:01.365Z,1019.39
2018-01-29T03:01:36.667Z,1019.36
2018-01-29T03:02:12.058Z,1019.44
2018-01-29T03:02:47.658Z,1019.35
2018-01-29T03:03:22.846Z,1019.30
2018-01-29T03:03:58.042Z,1019.23
2018-01-29T03:04:33.335Z,1019.36
2018-01-29T03:05:08.755Z,1019.27
2018-01-29T03:05:44.079Z,1019.28
2018-01-29T03:06:19.268Z,1019.38
2018-01-29T03:06:54.573Z,1019.34
2018-01-29T03:07:29.570Z,1019.27
2018-01-29T03:08:04.769Z,1019.27
2018-01-29T03:08:39.970Z,1019.22
2018-01-29T03:09:15.266Z,1019.25
2018-01-29T03:09:50.600Z,1019.23
2018-01-29T03:10:25.895Z,1019.23
2018-01-29T03:11:01.221Z,1019.24
2018-01-29T03:11:36.717Z,1019.29
2018-01-29T03:12:12.317Z,1019.23
2018-01-29T03:12:47.416Z,1019.16
2018-01-29T03:13:22.618Z,1019.14
2018-01-29T03:13:58.113Z,1019.18
2018-01-29T03:14:33.508Z,1019.24
2018-01-29T03:15:08.935Z,1019.21
2018-01-29T03:15:44.535Z,1019.15
2018-01-29T03:16:20.058Z,1019.18
2018-01-29T03:16:55.355Z,1019.17
2018-01-29T03:17:30.464Z,1019.17
2018-01-29T03:18:05.761Z,1019.18
2018-01-29T03:18:40.960Z,1019.13
2018-01-29T03:19:16.553Z,1019.22
2018-01-29T03:19:51.848Z,1019.15
2018-01-29T03:20:27.170Z,1018.94
2018-01-29T03:21:02.476Z,1019.05
2018-01-29T03:21:37.705Z,1018.99
2018-01-29T03:22:13.004Z,1019.20
2018-01-29T03:22:48.217Z,1019.21
2018-01-29T03:23:23.609Z,1019.06
2018-01-29T03:23:59.002Z,1019.03
2018-01-29T03:24:34.298Z,1019.08
2018-01-29T03:25:09.517Z,1019.03
2018-01-29T03:25:44.923Z,1019.10
2018-01-29T03:26:20.316Z,1018.99
2018-01-29T03:26:55.732Z,1019.06
2018-01-29T03:27:31.032Z,1019.18
2018-01-29T03:28:06.556Z,1019.10
2018-01-29T03:28:41.841Z,1019.23
2018-01-29T03:29:17.435Z,1019.17
2018-01-29T03:29:52.829Z,1019.07
2018-01-29T03:30:28.067Z,1019.10
2018-01-29T03:31:03.359Z,1019.07
2018-01-29T03:31:38.561Z,1019.12
2018-01-29T03:32:13.879Z,1019.09
2018-01-29T03:32:48.970Z,1019.09
2018-01-29T03:33:24.263Z,1019.06
2018-01-29T03:33:59.662Z,1019.07
2018-01-29T03:34:34.960Z,1019.02
2018-01-29T03:35:10.658Z,1019.05
2018-01-29T03:35:45.874Z,1019.06
2018-01-29T03:36:21.158Z,1019.04
2018-01-29T03:36:56.454Z,1018.99
2018-01-29T03:37:31.573Z,1019.12
2018-01-29T03:38:06.763Z,1019.05
2018-01-29T03:38:41.965Z,1019.01
2018-01-29T03:39:17.353Z,1019.04
2018-01-29T03:39:52.651Z,1019.04
2018-01-29T03:40:28.145Z,1019.08
2018-01-29T03:41:03.579Z,1019.03
2018-01-29T03:41:38.994Z,1019.14
2018-01-29T03:42:14.293Z,1019.17
2018-01-29T03:42:49.925Z,1019.11
2018-01-29T03:43:25.120Z,1019.10
2018-01-29T03:44:00.622Z,1019.16
2018-01-29T03:44:36.332Z,1019.06
2018-01-29T03:45:12.141Z,1019.08
2018-01-29T03:45:47.537Z,1019.09
2018-01-29T03:46:22.774Z,1019.08
2018-01-29T03:46:57.772Z,1019.06
2018-01-29T03:47:32.972Z,1019.05
2018-01-29T03:48:08.082Z,1019.04
2018-01-29T03:48:43.382Z,1019.07
2018-01-29T03:49:18.781Z,1019.07
2018-01-29T03:49:54.179Z,1018.98
2018-01-29T03:50:29.374Z,1018.96
2018-01-29T03:51:04.479Z,1019.03
2018-01-29T03:51:40.005Z,1019.04
2018-01-29T03:52:15.602Z,1019.08
2018-01-29T03:52:51.136Z,1019.05
2018-01-29T03:53:26.499Z,1019.02
2018-01-29T03:54:01.811Z,1018.85
2018-01-29T03:54:37.109Z,1019.00
2018-01-29T03:55:12.406Z,1018.95
2018-01-29T03:55:47.709Z,1019.06
2018-01-29T03:56:23.108Z,1018.97
2018-01-29T03:56:58.437Z,1019.02
2018-01-29T03:57:33.663Z,1018.93
2018-01-29T03:58:08.960Z,1019.05
2018-01-29T03:58:44.372Z,1018.91
2018-01-29T03:59:19.568Z,1019.07
2018-01-29T03:59:54.968Z,1018.99
2018-01-29T04:00:30.564Z,1018.94
2018-01-29T04:01:06.079Z,1018.90
2018-01-29T04:01:41.268Z,1018.97
2018-01-29T04:02:16.505Z,1018.98
2018-01-29T04:02:51.922Z,1019.02
2018-01-29T04:03:27.323Z,1018.97
2018-01-29T04:04:02.536Z,1018.92
2018-01-29T04:04:37.837Z,1018.94
2018-01-29T04:05:13.329Z,1018.91
2018-01-29T04:05:48.625Z,1018.88
2018-01-29T04:06:23.920Z,1018.91
2018-01-29T04:06:59.417Z,1018.87
2018-01-29T04:07:34.753Z,1018.78
2018-01-29T04:08:10.276Z,1018.84
2018-01-29T04:08:45.570Z,1018.77
2018-01-29T04:09:20.880Z,1018.75
2018-01-29T04:09:56.080Z,1018.78
2018-01-29T04:10:31.396Z,1018.84
2018-01-29T04:11:06.693Z,1018.81
2018-01-29T04:11:42.194Z,1018.93
2018-01-29T04:12:17.794Z,1018.85
2018-01-29T04:12:53.221Z,1018.81
2018-01-29T04:13:28.738Z,1018.76
2018-01-29T04:14:03.931Z,1018.81
2018-01-29T04:14:39.533Z,1018.80
2018-01-29T04:15:14.836Z,1018.87
2018-01-29T04:15:50.041Z,1018.89
2018-01-29T04:16:25.438Z,1018.79
2018-01-29T04:17:00.564Z,1018.81
2018-01-29T04:17:36.063Z,1018.78
2018-01-29T04:18:11.699Z,1018.83
2018-01-29T04:18:46.998Z,1018.82
2018-01-29T04:19:22.401Z,1018.79
2018-01-29T04:19:57.912Z,1018.73
2018-01-29T04:20:33.417Z,1018.67
2018-01-29T04:21:09.019Z,1018.83
2018-01-29T04:21:44.411Z,1018.75
2018-01-29T04:22:19.610Z,1018.77
2018-01-29T04:22:54.938Z,1018.74
2018-01-29T04:23:30.064Z,1018.79
2018-01-29T04:24:05.397Z,1018.69
2018-01-29T04:24:40.699Z,1018.69
2018-01-29T04:25:16.012Z,1018.73
2018-01-29T04:25:51.315Z,1018.68
2018-01-29T04:26:26.518Z,1018.82
2018-01-29T04:27:02.111Z,1018.72
2018-01-29T04:27:37.716Z,1018.67
2018-01-29T04:28:13.072Z,1018.73
2018-01-29T04:28:48.392Z,1018.61
2018-01-29T04:29:23.598Z,1018.65
2018-01-29T04:29:58.694Z,1018.66
2018-01-29T04:30:33.799Z,1018.64
2018-01-29T04:31:09.202Z,1018.56
2018-01-29T04:31:44.625Z,1018.62
2018-01-29T04:32:20.024Z,1018.68
2018-01-29T04:32:55.026Z,1018.60
2018-01-29T04:33:30.597Z,1018.57
2018-01-29T04:34:05.784Z,1018.43
2018-01-29T04:34:40.896Z,1018.59
2018-01-29T04:35:16.295Z,1018.62
2018-01-29T04:35:51.699Z,1018.55
2018-01-29T04:36:27.115Z,1018.51
2018-01-29T04:37:02.526Z,1018.51
2018-01-29T04:37:37.928Z,1018.49
2018-01-29T04:38:13.229Z,1018.55
2018-01-29T04:38:48.253Z,1018.56
2018-01-29T04:39:23.378Z,1018.57
2018-01-29T04:39:59.080Z,1018.52
2018-01-29T04:40:34.084Z,1018.61
2018-01-29T04:41:09.390Z,1018.59
2018-01-29T04:41:44.700Z,1018.59
2018-01-29T04:42:20.300Z,1018.48
2018-01-29T04:42:55.697Z,1018.50
2018-01-29T04:43:31.197Z,1018.52
2018-01-29T04:44:06.630Z,1018.56
2018-01-29T04:44:41.969Z,1018.56
2018-01-29T04:45:17.459Z,1018.63
2018-01-29T04:45:52.661Z,1018.52
2018-01-29T04:46:28.060Z,1018.56
2018-01-29T04:47:03.657Z,1018.55
2018-01-29T04:47:39.157Z,1018.65
2018-01-29T04:48:14.571Z,1018.55
2018-01-29T04:48:49.865Z,1018.50
2018-01-29T04:49:25.071Z,1018.64
2018-01-29T04:50:00.202Z,1018.56
2018-01-29T04:50:35.406Z,1018.61
2018-01-29T04:51:10.706Z,1018.53
2018-01-29T04:51:45.702Z,1018.58
2018-01-29T04:52:21.305Z,1018.51
2018-01-29T04:52:56.616Z,1018.54
2018-01-29T04:53:31.935Z,1018.55
2018-01-29T04:54:07.540Z,1018.52
2018-01-29T04:54:43.139Z,1018.52
2018-01-29T04:55:18.968Z,1018.55
2018-01-29T04:55:54.371Z,1018.55
2018-01-29T04:56:29.672Z,1018.52
2018-01-29T04:57:05.191Z,1018.56
2018-01-29T04:57:40.581Z,1018.54
2018-01-29T04:58:15.679Z,1018.50
2018-01-29T04:58:51.101Z,1018.63
2018-01-29T04:59:26.601Z,1018.50
2018-01-29T05:00:01.705Z,1018.52
2018-01-29T05:00:37.545Z,1018.47
2018-01-29T05:01:12.955Z,1018.47
2018-01-29T05:01:48.348Z,1018.51
2018-01-29T05:02:23.950Z,1018.48
2018-01-29T05:02:59.249Z,1018.64
2018-01-29T05:03:34.450Z,1018.51
2018-01-29T05:04:09.776Z,1018.43
2018-01-29T05:04:45.071Z,1018.50
2018-01-29T05:05:20.571Z,1018.47
2018-01-29T05:05:56.201Z,1018.58
2018-01-29T05:06:31.504Z,1018.65
2018-01-29T05:07:07.006Z,1018.50
2018-01-29T05:07:42.503Z,1018.49
2018-01-29T05:08:17.811Z,1018.48
2018-01-29T05:08:53.116Z,1018.44
2018-01-29T05:09:28.443Z,1018.49
2018-01-29T05:10:03.851Z,1018.48
2018-01-29T05:10:39.360Z,1018.52
2018-01-29T05:11:14.691Z,1018.48
2018-01-29T05:11:49.902Z,1018.41
2018-01-29T05:12:25.099Z,1018.48
2018-01-29T05:13:00.101Z,1018.49
2018-01-29T05:13:35.504Z,1018.52
2018-01-29T05:14:10.712Z,1018.49
2018-01-29T05:14:45.917Z,1018.54
2018-01-29T05:15:21.215Z,1018.53
2018-01-29T05:15:56.630Z,1018.46
2018-01-29T05:16:32.059Z,1018.50
2018-01-29T05:17:07.542Z,1018.37
2018-01-29T05:17:42.628Z,1018.44
2018-01-29T05:18:17.925Z,1018.48
2018-01-29T05:18:53.144Z,1018.47
2018-01-29T05:19:28.342Z,1018.45
2018-01-29T05:20:03.742Z,1018.48
2018-01-29T05:20:39.238Z,1018.45
2018-01-29T05:21:15.145Z,1018.42
2018-01-29T05:21:50.370Z,1018.46
2018-01-29T05:22:25.867Z,1018.51
2018-01-29T05:23:01.264Z,1018.42
2018-01-29T05:23:36.870Z,1018.57
2018-01-29T05:24:12.403Z,1018.45
2018-01-29T05:24:47.501Z,1018.54
2018-01-29T05:25:22.896Z,1018.65
2018-01-29T05:25:58.197Z,1018.55
2018-01-29T05:26:33.492Z,1018.49
2018-01-29T05:27:08.917Z,1018.58
2018-01-29T05:27:44.422Z,1018.44
2018-01-29T05:28:19.625Z,1018.48
2018-01-29T05:28:55.248Z,1018.54
2018-01-29T05:29:31.198Z,1018.47
2018-01-29T05:30:06.393Z,1018.52
2018-01-29T05:30:42.788Z,1018.53
2018-01-29T05:31:17.898Z,1018.46
2018-01-29T05:31:53.397Z,1018.48
2018-01-29T05:32:29.021Z,1018.49
2018-01-29T05:33:04.256Z,1018.52
2018-01-29T05:33:39.554Z,1018.51
2018-01-29T05:34:14.770Z,1018.50
2018-01-29T05:34:49.873Z,1018.52
2018-01-29T05:35:25.064Z,1018.53
2018-01-29T05:36:00.257Z,1018.61
2018-01-29T05:36:35.563Z,1018.41
2018-01-29T05:37:10.962Z,1018.51
2018-01-29T05:37:46.404Z,1018.44
2018-01-29T05:38:22.026Z,1018.42
2018-01-29T05:38:57.316Z,1018.44
2018-01-29T05:39:32.526Z,1018.52
2018-01-29T05:40:07.853Z,1018.38
2018-01-29T05:40:43.133Z,1018.33
2018-01-29T05:41:18.340Z,1018.44
2018-01-29T05:41:53.937Z,1018.30
2018-01-29T05:42:29.643Z,1018.34
2018-01-29T05:43:04.868Z,1018.32
2018-01-29T05:43:40.068Z,1018.31
2018-01-29T05:44:15.389Z,1018.34
2018-01-29T05:44:50.786Z,1018.34
2018-01-29T05:45:25.983Z,1018.30
2018-01-29T05:46:01.282Z,1018.40
2018-01-29T05:46:36.585Z,1018.34
2018-01-29T05:47:11.992Z,1018.27
2018-01-29T05:47:46.990Z,1018.25
2018-01-29T05:48:22.716Z,1018.26
2018-01-29T05:48:58.038Z,1018.26
2018-01-29T05:49:33.557Z,1018.24
2018-01-29T05:50:08.952Z,1018.43
2018-01-29T05:50:44.253Z,1018.26
2018-01-29T05:51:19.657Z,1018.22
2018-01-29T05:51:54.962Z,1018.30
2018-01-29T05:52:30.561Z,1018.25
2018-01-29T05:53:05.784Z,1018.26
2018-01-29T05:53:41.326Z,1018.28
2018-01-29T05:54:16.526Z,1018.26
2018-01-29T05:54:52.258Z,1018.28
2018-01-29T05:55:27.949Z,1018.34
2018-01-29T05:56:03.152Z,1018.27
2018-01-29T05:56:38.851Z,1018.32
2018-01-29T05:57:14.149Z,1018.42
2018-01-29T05:57:49.644Z,1018.45
2018-01-29T05:58:24.941Z,1018.35
2018-01-29T05:59:00.269Z,1018.47
2018-01-29T05:59:35.572Z,1018.35
2018-01-29T06:00:10.997Z,1018.37
2018-01-29T06:00:46.489Z,1018.32
2018-01-29T06:01:21.794Z,1018.49
2018-01-29T06:01:57.093Z,1018.34
2018-01-29T06:02:32.203Z,1018.32
2018-01-29T06:03:07.404Z,1018.44
2018-01-29T06:03:42.704Z,1018.33
2018-01-29T06:04:18.236Z,1018.37
2018-01-29T06:04:53.637Z,1018.29
2018-01-29T06:05:28.937Z,1018.25
2018-01-29T06:06:04.241Z,1018.27
2018-01-29T06:06:39.339Z,1018.25
2018-01-29T06:07:14.444Z,1018.34
2018-01-29T06:07:49.640Z,1018.27
2018-01-29T06:08:24.891Z,1018.28
2018-01-29T06:09:00.131Z,1018.28
2018-01-29T06:09:35.547Z,1018.27
2018-01-29T06:10:11.143Z,1018.29
2018-01-29T06:10:46.344Z,1018.25
2018-01-29T06:11:21.950Z,1018.27
2018-01-29T06:11:57.140Z,1018.19
2018-01-29T06:12:32.639Z,1018.27
2018-01-29T06:13:08.033Z,1018.28
2018-01-29T06:13:43.426Z,1018.27
2018-01-29T06:14:18.639Z,1018.25
2018-01-29T06:14:53.889Z,1018.24
2018-01-29T06:15:29.309Z,1018.21
2018-01-29T06:16:04.311Z,1018.29
2018-01-29T06:16:39.508Z,1018.31
2018-01-29T06:17:14.603Z,1018.19
2018-01-29T06:17:50.102Z,1018.37
2018-01-29T06:18:25.424Z,1018.26
2018-01-29T06:19:00.922Z,1018.30
2018-01-29T06:19:36.322Z,1018.33
2018-01-29T06:20:11.873Z,1018.31
2018-01-29T06:20:47.483Z,1018.20
2018-01-29T06:21:22.570Z,1018.31
2018-01-29T06:21:58.061Z,1018.29
2018-01-29T06:22:33.403Z,1018.25
2018-01-29T06:23:08.792Z,1018.32
2018-01-29T06:23:44.290Z,1018.28
2018-01-29T06:24:19.679Z,1018.28
2018-01-29T06:24:54.985Z,1018.30
2018-01-29T06:25:30.437Z,1018.25
2018-01-29T06:26:05.938Z,1018.35
2018-01-29T06:26:41.440Z,1018.30
2018-01-29T06:27:16.731Z,1018.34
2018-01-29T06:27:52.124Z,1018.34
2018-01-29T06:28:27.613Z,1018.31
2018-01-29T06:29:03.212Z,1018.30
2018-01-29T06:29:38.500Z,1018.24
2018-01-29T06:30:13.705Z,1018.28
2018-01-29T06:30:49.358Z,1018.38
2018-01-29T06:31:24.548Z,1018.29
2018-01-29T06:32:00.152Z,1018.30
2018-01-29T06:32:35.448Z,1018.31
2018-01-29T06:33:10.576Z,1018.33
2018-01-29T06:33:45.867Z,1018.45
2018-01-29T06:34:21.094Z,1018.28
2018-01-29T06:34:56.493Z,1018.29
2018-01-29T06:35:32.215Z,1018.30
2018-01-29T06:36:07.438Z,1018.26
2018-01-29T06:36:42.652Z,1018.22
2018-01-29T06:37:17.845Z,1018.26
2018-01-29T06:37:53.062Z,1018.35
2018-01-29T06:38:28.257Z,1018.37
2018-01-29T06:39:03.681Z,1018.25
2018-01-29T06:39:38.974Z,1018.27
2018-01-29T06:40:14.300Z,1018.33
2018-01-29T06:40:49.696Z,1018.25
2018-01-29T06:41:25.148Z,1018.28
2018-01-29T06:42:00.473Z,1018.35
2018-01-29T06:42:36.251Z,1018.25
2018-01-29T06:43:12.656Z,1018.43
2018-01-29T06:43:48.083Z,1018.42
2018-01-29T06:44:23.381Z,1018.31
2018-01-29T06:44:59.096Z,1018.38
2018-01-29T06:45:34.793Z,1018.35
2018-01-29T06:46:10.128Z,1018.35
2018-01-29T06:46:45.244Z,1018.33
2018-01-29T06:47:20.472Z,1018.33
2018-01-29T06:47:55.763Z,1018.38
2018-01-29T06:48:30.985Z,1018.15
2018-01-29T06:49:06.481Z,1018.35
2018-01-29T06:49:42.208Z,1018.55
2018-01-29T06:50:17.496Z,1018.41
2018-01-29T06:50:53.151Z,1018.44
2018-01-29T06:51:28.616Z,1018.45
2018-01-29T06:52:04.072Z,1018.22
2018-01-29T06:52:39.273Z,1018.49
2018-01-29T06:53:14.946Z,1018.32
2018-01-29T06:53:50.192Z,1018.30
2018-01-29T06:54:25.916Z,1018.36
2018-01-29T06:55:01.408Z,1018.24
2018-01-29T06:55:36.937Z,1018.26
2018-01-29T06:56:12.479Z,1018.21
2018-01-29T06:56:47.753Z,1018.26
2018-01-29T06:57:22.976Z,1018.32
2018-01-29T06:57:58.297Z,1018.25
2018-01-29T06:58:33.786Z,1018.33
2018-01-29T06:59:08.901Z,1018.28
2018-01-29T06:59:44.492Z,1018.28
2018-01-29T07:00:19.919Z,1018.31
2018-01-29T07:00:55.310Z,1018.26
2018-01-29T07:01:30.619Z,1018.17
2018-01-29T07:02:06.058Z,1018.35
2018-01-29T07:02:41.248Z,1018.31
2018-01-29T07:03:16.540Z,1018.17
2018-01-29T07:03:51.849Z,1018.19
2018-01-29T07:04:27.233Z,1018.26
2018-01-29T07:05:02.464Z,1018.23
2018-01-29T07:05:38.037Z,1018.16
2018-01-29T07:06:13.256Z,1018.33
2018-01-29T07:06:48.447Z,1018.12
2018-01-29T07:07:23.798Z,1018.15
2018-01-29T07:07:59.281Z,1018.23